Airfield :
LOGIN :

Register | Disclaimer

   EN    FR    IT 

 










Legend :    VFR   Marginal VFR   IFR   Intensive IFR   Very Intensive IFR
Visi :
Ceiling :
>= 8 km
>= 3000ft
5 to 8 km
1000 to 3000 ft
1500m to 5 km
500 to 1000 ft
800 to 1500m
200 to 500 ft
< 800m
< 200 ft
Symbols :   Thunderstorms  Fog  Heavy snow  Heavy precipitations  Wind > 20 kt
SIGMETs :     Misc.  Thunderstorms  Icing  Turbulence  Mountain Waves  Volcanic Ashes






- Airport Elevation : 309 ft
- IATA code : FNI


LFTW - Nîmes Garons

CURRENT METAR :
  • 220300Z AUTO 06005KT CAVOK 09/07 Q1017 TEMPO 0900 FG VV///

EXPIRED METARs :
  • 220230Z AUTO 05005KT CAVOK 09/07 Q1017 TEMPO 0900 FG VV///
  • 220200Z AUTO 05005KT CAVOK 09/07 Q1017
  • 220130Z AUTO 05005KT CAVOK 09/08 Q1017
  • 220100Z AUTO 05002KT 9999 FEW035 07/07 Q1017
  • 220030Z AUTO 04003KT CAVOK 08/07 Q1017

TAF TAF LFTW
Valid from the 22 at 03:00 until the 23 at 03:00 UTC


220200Z 2203/2303 03004KT CAVOK
PROB30
TEMPO 2204/2207 0900 FG VV///
BECMG 2214/2216 22010KT
BECMG 2221/2223 VRB02KT



MET'MAP, your aeronautical weather chart ! - Copyright ORBIFLY December 2007 - Disclaimer

ORBIFLY MET'MAP TEAM :

Programming & Development : Alexandra Zaïnal
Concept & original design : Baudouin d'Aumeries
Assistance for programming : Marc-Olivier Méhu
Technical & hardware support : Manuel Goepfert

Contact : metmap@orbifly.com




SOURCES & CREDITS :

   NOAA